sensor_id;sensor_type;location;lat;lon;timestamp;pressure;altitude;pressure_sealevel;temperature;humidity
7309;BME280;3695;53.330;9.876;2023-07-22T00:00:33;101633.66;;;26.65;100.00
7309;BME280;3695;53.330;9.876;2023-07-22T00:03:00;101650.47;;;25.42;100.00
7309;BME280;3695;53.330;9.876;2023-07-22T00:05:26;101632.00;;;26.13;100.00
7309;BME280;3695;53.330;9.876;2023-07-22T00:07:53;101625.75;;;26.40;100.00
7309;BME280;3695;53.330;9.876;2023-07-22T00:10:19;101633.47;;;26.43;100.00
7309;BME280;3695;53.330;9.876;2023-07-22T00:12:47;101634.28;;;26.76;100.00
7309;BME280;3695;53.330;9.876;2023-07-22T00:15:13;101627.25;;;27.11;100.00
7309;BME280;3695;53.330;9.876;2023-07-22T00:17:40;101638.97;;;26.29;100.00
7309;BME280;3695;53.330;9.876;2023-07-22T00:20:08;101648.59;;;25.14;100.00
7309;BME280;3695;53.330;9.876;2023-07-22T00:22:36;101648.38;;;24.81;100.00
7309;BME280;3695;53.330;9.876;2023-07-22T00:25:03;101634.06;;;26.72;100.00
7309;BME280;3695;53.330;9.876;2023-07-22T00:27:30;101629.72;;;26.66;100.00
7309;BME280;3695;53.330;9.876;2023-07-22T00:29:58;101639.72;;;26.34;100.00
7309;BME280;3695;53.330;9.876;2023-07-22T00:32:24;101633.25;;;26.72;100.00
7309;BME280;3695;53.330;9.876;2023-07-22T00:34:51;101641.03;;;25.86;100.00
7309;BME280;3695;53.330;9.876;2023-07-22T00:37:17;101622.47;;;27.25;100.00
7309;BME280;3695;53.330;9.876;2023-07-22T00:39:43;101639.72;;;26.34;100.00
7309;BME280;3695;53.330;9.876;2023-07-22T00:42:10;101644.75;;;25.33;100.00
7309;BME280;3695;53.330;9.876;2023-07-22T00:44:36;101646.94;;;25.98;100.00
7309;BME280;3695;53.330;9.876;2023-07-22T00:47:04;101653.56;;;25.17;100.00
7309;BME280;3695;53.330;9.876;2023-07-22T00:49:31;101650.97;;;26.24;100.00
7309;BME280;3695;53.330;9.876;2023-07-22T00:52:01;101632.22;;;26.81;100.00
7309;BME280;3695;53.330;9.876;2023-07-22T00:54:27;101612.34;;;27.56;100.00
7309;BME280;3695;53.330;9.876;2023-07-22T00:56:54;101640.38;;;26.45;100.00
7309;BME280;3695;53.330;9.876;2023-07-22T00:59:20;101634.91;;;26.86;100.00
7309;BME280;3695;53.330;9.876;2023-07-22T01:01:47;101621.91;;;26.95;100.00
7309;BME280;3695;53.330;9.876;2023-07-22T01:04:15;101631.28;;;25.69;100.00
7309;BME280;3695;53.330;9.876;2023-07-22T01:06:45;101623.31;;;26.52;100.00
7309;BME280;3695;53.330;9.876;2023-07-22T01:09:13;101629.38;;;26.21;100.00
7309;BME280;3695;53.330;9.876;2023-07-22T01:11:39;101631.06;;;26.69;100.00
7309;BME280;3695;53.330;9.876;2023-07-22T01:14:06;101536.34;;;34.35;100.00
7309;BME280;3695;53.330;9.876;2023-07-22T01:16:33;101618.00;;;26.83;100.00
7309;BME280;3695;53.330;9.876;2023-07-22T01:19:00;101623.91;;;26.49;100.00
7309;BME280;3695;53.330;9.876;2023-07-22T01:21:28;101633.09;;;25.13;100.00
7309;BME280;3695;53.330;9.876;2023-07-22T01:23:56;101577.94;;;31.23;100.00
7309;BME280;3695;53.330;9.876;2023-07-22T01:26:23;101631.13;;;25.80;100.00
7309;BME280;3695;53.330;9.876;2023-07-22T01:28:49;101632.28;;;25.55;100.00
7309;BME280;3695;53.330;9.876;2023-07-22T01:31:16;101624.13;;;25.39;100.00
7309;BME280;3695;53.330;9.876;2023-07-22T01:33:42;101607.84;;;26.46;100.00
7309;BME280;3695;53.330;9.876;2023-07-22T01:36:09;101615.72;;;26.71;100.00
7309;BME280;3695;53.330;9.876;2023-07-22T01:38:35;101618.00;;;26.37;100.00
7309;BME280;3695;53.330;9.876;2023-07-22T01:41:03;101608.44;;;26.43;100.00
7309;BME280;3695;53.330;9.876;2023-07-22T01:43:29;101610.78;;;26.54;100.00
7309;BME280;3695;53.330;9.876;2023-07-22T01:45:56;101614.19;;;26.65;100.00
7309;BME280;3695;53.330;9.876;2023-07-22T01:48:22;101605.94;;;26.60;100.00
7309;BME280;3695;53.330;9.876;2023-07-22T01:50:49;101584.44;;;27.84;100.00
7309;BME280;3695;53.330;9.876;2023-07-22T01:53:15;101617.50;;;24.64;100.00
7309;BME280;3695;53.330;9.876;2023-07-22T01:55:41;101614.69;;;25.83;100.00
7309;BME280;3695;53.330;9.876;2023-07-22T01:58:10;101598.22;;;26.71;100.00
7309;BME280;3695;53.330;9.876;2023-07-22T02:00:37;101604.31;;;26.08;100.00
7309;BME280;3695;53.330;9.876;2023-07-22T02:03:03;101608.47;;;25.49;100.00
7309;BME280;3695;53.330;9.876;2023-07-22T02:05:30;101603.50;;;25.69;100.00
7309;BME280;3695;53.330;9.876;2023-07-22T02:07:56;101607.22;;;25.97;100.00
7309;BME280;3695;53.330;9.876;2023-07-22T02:10:23;101616.19;;;24.22;100.00
7309;BME280;3695;53.330;9.876;2023-07-22T02:12:49;101615.84;;;24.87;100.00
7309;BME280;3695;53.330;9.876;2023-07-22T02:15:18;101614.69;;;24.35;100.00
7309;BME280;3695;53.330;9.876;2023-07-22T02:17:46;101606.41;;;24.64;100.00
7309;BME280;3695;53.330;9.876;2023-07-22T02:20:13;101613.53;;;23.58;100.00
7309;BME280;3695;53.330;9.876;2023-07-22T02:22:40;101604.09;;;25.66;100.00
7309;BME280;3695;53.330;9.876;2023-07-22T02:25:07;101600.66;;;25.75;100.00
7309;BME280;3695;53.330;9.876;2023-07-22T02:27:35;101604.31;;;25.89;100.00
7309;BME280;3695;53.330;9.876;2023-07-22T02:30:02;101600.66;;;25.32;100.00
7309;BME280;3695;53.330;9.876;2023-07-22T02:32:31;101613.38;;;24.27;100.00
7309;BME280;3695;53.330;9.876;2023-07-22T02:34:57;101624.16;;;23.90;100.00
7309;BME280;3695;53.330;9.876;2023-07-22T02:37:23;101625.69;;;23.67;100.00
7309;BME280;3695;53.330;9.876;2023-07-22T02:39:50;101602.81;;;25.78;100.00
7309;BME280;3695;53.330;9.876;2023-07-22T02:42:16;101626.75;;;24.15;100.00
7309;BME280;3695;53.330;9.876;2023-07-22T02:44:43;101607.72;;;24.71;100.00
7309;BME280;3695;53.330;9.876;2023-07-22T02:47:09;101611.72;;;24.55;100.00
7309;BME280;3695;53.330;9.876;2023-07-22T02:49:37;101618.41;;;24.83;100.00
7309;BME280;3695;53.330;9.876;2023-07-22T02:52:04;101623.63;;;24.27;100.00
7309;BME280;3695;53.330;9.876;2023-07-22T02:54:32;101640.06;;;22.63;100.00
7309;BME280;3695;53.330;9.876;2023-07-22T02:56:58;101623.84;;;24.35;100.00
7309;BME280;3695;53.330;9.876;2023-07-22T02:59:25;101628.41;;;24.16;100.00
7309;BME280;3695;53.330;9.876;2023-07-22T03:01:51;101628.16;;;23.73;100.00
7309;BME280;3695;53.330;9.876;2023-07-22T03:04:18;101630.44;;;24.00;100.00
7309;BME280;3695;53.330;9.876;2023-07-22T03:06:47;101635.91;;;24.10;100.00
7309;BME280;3695;53.330;9.876;2023-07-22T03:09:13;101634.72;;;23.82;100.00
7309;BME280;3695;53.330;9.876;2023-07-22T03:11:39;101630.41;;;23.61;100.00
7309;BME280;3695;53.330;9.876;2023-07-22T03:14:06;101635.16;;;24.00;100.00
7309;BME280;3695;53.330;9.876;2023-07-22T03:16:32;101633.44;;;24.09;100.00
7309;BME280;3695;53.330;9.876;2023-07-22T03:18:59;101622.94;;;24.74;100.00
7309;BME280;3695;53.330;9.876;2023-07-22T03:21:25;101629.56;;;24.05;100.00
7309;BME280;3695;53.330;9.876;2023-07-22T03:23:53;101630.03;;;24.85;100.00
7309;BME280;3695;53.330;9.876;2023-07-22T03:26:19;101636.72;;;24.11;100.00
7309;BME280;3695;53.330;9.876;2023-07-22T03:28:46;101653.25;;;23.17;100.00
7309;BME280;3695;53.330;9.876;2023-07-22T03:31:13;101637.84;;;24.49;100.00
7309;BME280;3695;53.330;9.876;2023-07-22T03:33:39;101627.72;;;25.64;100.00
7309;BME280;3695;53.330;9.876;2023-07-22T03:36:08;101641.38;;;25.36;100.00
7309;BME280;3695;53.330;9.876;2023-07-22T03:38:34;101641.47;;;25.50;100.00
7309;BME280;3695;53.330;9.876;2023-07-22T03:41:02;101655.00;;;24.12;100.00
7309;BME280;3695;53.330;9.876;2023-07-22T03:43:28;101667.63;;;21.92;100.00
7309;BME280;3695;53.330;9.876;2023-07-22T03:45:55;101658.28;;;22.70;100.00
7309;BME280;3695;53.330;9.876;2023-07-22T03:48:21;101657.44;;;24.24;100.00
7309;BME280;3695;53.330;9.876;2023-07-22T03:50:48;101665.34;;;24.01;100.00
7309;BME280;3695;53.330;9.876;2023-07-22T03:53:14;101653.09;;;25.09;100.00
7309;BME280;3695;53.330;9.876;2023-07-22T03:55:40;101660.00;;;26.54;100.00
7309;BME280;3695;53.330;9.876;2023-07-22T03:58:08;101668.47;;;24.68;100.00
7309;BME280;3695;53.330;9.876;2023-07-22T04:00:35;101680.97;;;22.36;100.00
7309;BME280;3695;53.330;9.876;2023-07-22T04:03:01;101671.47;;;24.37;100.00
7309;BME280;3695;53.330;9.876;2023-07-22T04:05:28;101673.38;;;23.98;100.00
7309;BME280;3695;53.330;9.876;2023-07-22T04:07:55;101666.38;;;24.10;100.00
7309;BME280;3695;53.330;9.876;2023-07-22T04:10:21;101654.50;;;25.31;100.00
7309;BME280;3695;53.330;9.876;2023-07-22T04:12:47;101646.88;;;26.22;100.00
7309;BME280;3695;53.330;9.876;2023-07-22T04:15:15;101656.09;;;24.84;100.00
7309;BME280;3695;53.330;9.876;2023-07-22T04:17:42;101650.84;;;25.78;100.00
7309;BME280;3695;53.330;9.876;2023-07-22T04:20:09;101658.53;;;26.05;100.00
7309;BME280;3695;53.330;9.876;2023-07-22T04:22:36;101655.19;;;25.41;100.00
7309;BME280;3695;53.330;9.876;2023-07-22T04:25:03;101676.00;;;24.57;100.00
7309;BME280;3695;53.330;9.876;2023-07-22T04:27:30;101672.44;;;25.15;100.00
7309;BME280;3695;53.330;9.876;2023-07-22T04:29:56;101679.22;;;23.96;100.00
7309;BME280;3695;53.330;9.876;2023-07-22T04:32:24;101662.78;;;25.79;100.00
7309;BME280;3695;53.330;9.876;2023-07-22T04:34:50;101685.34;;;22.07;100.00
7309;BME280;3695;53.330;9.876;2023-07-22T04:37:17;101695.09;;;21.62;100.00
7309;BME280;3695;53.330;9.876;2023-07-22T04:39:48;101685.00;;;21.83;100.00
7309;BME280;3695;53.330;9.876;2023-07-22T04:42:15;101687.50;;;20.26;100.00
7309;BME280;3695;53.330;9.876;2023-07-22T04:44:42;101687.84;;;21.41;100.00
7309;BME280;3695;53.330;9.876;2023-07-22T04:47:09;101685.41;;;22.88;100.00
7309;BME280;3695;53.330;9.876;2023-07-22T04:49:37;101686.38;;;23.43;100.00
7309;BME280;3695;53.330;9.876;2023-07-22T04:52:05;101691.53;;;24.19;100.00
7309;BME280;3695;53.330;9.876;2023-07-22T04:54:31;101692.13;;;23.62;100.00
7309;BME280;3695;53.330;9.876;2023-07-22T04:56:58;101711.06;;;22.33;100.00
7309;BME280;3695;53.330;9.876;2023-07-22T04:59:25;101704.19;;;22.96;100.00
7309;BME280;3695;53.330;9.876;2023-07-22T05:01:51;101702.78;;;23.19;100.00
7309;BME280;3695;53.330;9.876;2023-07-22T05:04:18;101705.44;;;24.09;100.00
7309;BME280;3695;53.330;9.876;2023-07-22T05:06:45;101723.88;;;24.34;100.00
7309;BME280;3695;53.330;9.876;2023-07-22T05:09:12;101724.06;;;22.57;100.00
7309;BME280;3695;53.330;9.876;2023-07-22T05:11:38;101715.25;;;22.96;100.00
7309;BME280;3695;53.330;9.876;2023-07-22T05:14:05;101720.22;;;22.74;100.00
7309;BME280;3695;53.330;9.876;2023-07-22T05:16:31;101697.84;;;24.69;100.00
7309;BME280;3695;53.330;9.876;2023-07-22T05:18:58;101710.28;;;22.73;100.00
7309;BME280;3695;53.330;9.876;2023-07-22T05:21:24;101707.44;;;23.29;100.00
7309;BME280;3695;53.330;9.876;2023-07-22T05:23:52;101727.69;;;22.83;100.00
7309;BME280;3695;53.330;9.876;2023-07-22T05:26:18;101709.38;;;23.98;100.00
7309;BME280;3695;53.330;9.876;2023-07-22T05:28:45;101715.00;;;23.88;100.00
7309;BME280;3695;53.330;9.876;2023-07-22T05:31:11;101717.84;;;23.62;100.00
7309;BME280;3695;53.330;9.876;2023-07-22T05:33:38;101657.13;;;35.16;100.00
7309;BME280;3695;53.330;9.876;2023-07-22T05:36:05;101674.25;;;32.11;100.00
7309;BME280;3695;53.330;9.876;2023-07-22T05:38:31;101693.91;;;27.98;100.00
7309;BME280;3695;53.330;9.876;2023-07-22T05:40:59;101724.63;;;22.59;100.00
7309;BME280;3695;53.330;9.876;2023-07-22T05:43:26;101717.41;;;23.24;100.00
7309;BME280;3695;53.330;9.876;2023-07-22T05:45:52;101719.03;;;23.36;100.00
7309;BME280;3695;53.330;9.876;2023-07-22T05:48:19;101727.84;;;23.48;100.00
7309;BME280;3695;53.330;9.876;2023-07-22T05:50:46;101738.97;;;23.28;100.00
7309;BME280;3695;53.330;9.876;2023-07-22T05:53:13;101718.38;;;24.68;100.00
7309;BME280;3695;53.330;9.876;2023-07-22T05:55:39;101720.66;;;23.47;100.00
7309;BME280;3695;53.330;9.876;2023-07-22T05:58:15;101723.16;;;24.13;100.00
7309;BME280;3695;53.330;9.876;2023-07-22T06:00:42;101731.28;;;26.45;100.00
7309;BME280;3695;53.330;9.876;2023-07-22T06:03:09;101725.50;;;26.22;100.00
7309;BME280;3695;53.330;9.876;2023-07-22T06:05:35;101721.66;;;25.99;100.00
7309;BME280;3695;53.330;9.876;2023-07-22T06:08:01;101734.09;;;25.59;100.00
7309;BME280;3695;53.330;9.876;2023-07-22T06:10:28;101746.53;;;24.80;100.00
7309;BME280;3695;53.330;9.876;2023-07-22T06:12:55;101736.97;;;25.49;100.00
7309;BME280;3695;53.330;9.876;2023-07-22T06:15:23;101741.66;;;26.01;100.00
7309;BME280;3695;53.330;9.876;2023-07-22T06:17:49;101740.06;;;26.14;100.00
7309;BME280;3695;53.330;9.876;2023-07-22T06:20:16;101753.22;;;25.37;100.00
7309;BME280;3695;53.330;9.876;2023-07-22T06:22:42;101752.94;;;25.62;100.00
7309;BME280;3695;53.330;9.876;2023-07-22T06:25:08;101747.97;;;25.35;100.00
7309;BME280;3695;53.330;9.876;2023-07-22T06:27:35;101770.78;;;24.10;100.00
7309;BME280;3695;53.330;9.876;2023-07-22T06:30:02;101760.63;;;24.49;100.00
7309;BME280;3695;53.330;9.876;2023-07-22T06:32:29;101769.50;;;25.43;100.00
7309;BME280;3695;53.330;9.876;2023-07-22T06:34:56;101761.56;;;24.74;100.00
7309;BME280;3695;53.330;9.876;2023-07-22T06:37:23;101754.44;;;25.97;100.00
7309;BME280;3695;53.330;9.876;2023-07-22T06:39:49;101772.94;;;23.48;100.00
7309;BME280;3695;53.330;9.876;2023-07-22T06:42:16;101774.88;;;25.35;100.00
7309;BME280;3695;53.330;9.876;2023-07-22T06:44:42;101755.63;;;25.72;100.00
7309;BME280;3695;53.330;9.876;2023-07-22T06:47:09;101756.69;;;25.48;100.00
7309;BME280;3695;53.330;9.876;2023-07-22T06:49:37;101760.47;;;25.33;100.00
7309;BME280;3695;53.330;9.876;2023-07-22T06:52:04;101769.72;;;22.90;100.00
7309;BME280;3695;53.330;9.876;2023-07-22T06:54:31;101761.28;;;25.62;100.00
7309;BME280;3695;53.330;9.876;2023-07-22T06:56:57;101753.81;;;26.94;100.00
7309;BME280;3695;53.330;9.876;2023-07-22T06:59:24;101749.31;;;26.28;100.00
7309;BME280;3695;53.330;9.876;2023-07-22T07:01:51;101759.03;;;26.50;100.00
7309;BME280;3695;53.330;9.876;2023-07-22T07:04:18;101758.44;;;27.04;100.00
7309;BME280;3695;53.330;9.876;2023-07-22T07:06:45;101760.41;;;26.85;100.00
7309;BME280;3695;53.330;9.876;2023-07-22T07:09:12;101751.34;;;26.93;100.00
7309;BME280;3695;53.330;9.876;2023-07-22T07:11:38;101774.59;;;24.34;100.00
7309;BME280;3695;53.330;9.876;2023-07-22T07:14:05;101752.97;;;26.80;100.00
7309;BME280;3695;53.330;9.876;2023-07-22T07:16:32;101760.53;;;25.52;100.00
7309;BME280;3695;53.330;9.876;2023-07-22T07:18:59;101751.75;;;26.86;100.00
7309;BME280;3695;53.330;9.876;2023-07-22T07:21:26;101757.28;;;27.51;100.00
7309;BME280;3695;53.330;9.876;2023-07-22T07:23:54;101767.28;;;26.55;100.00
7309;BME280;3695;53.330;9.876;2023-07-22T07:26:22;101758.31;;;27.97;100.00
7309;BME280;3695;53.330;9.876;2023-07-22T07:28:49;101768.91;;;26.18;100.00
7309;BME280;3695;53.330;9.876;2023-07-22T07:31:16;101762.34;;;27.77;100.00
7309;BME280;3695;53.330;9.876;2023-07-22T07:33:43;101763.41;;;27.21;100.00
7309;BME280;3695;53.330;9.876;2023-07-22T07:36:10;101769.50;;;27.37;100.00
7309;BME280;3695;53.330;9.876;2023-07-22T07:38:36;101789.47;;;24.43;100.00
7309;BME280;3695;53.330;9.876;2023-07-22T07:41:05;101771.13;;;26.40;100.00
7309;BME280;3695;53.330;9.876;2023-07-22T07:43:33;101779.59;;;25.87;100.00
7309;BME280;3695;53.330;9.876;2023-07-22T07:46:15;101775.47;;;26.65;100.00
7309;BME280;3695;53.330;9.876;2023-07-22T07:48:43;101776.16;;;26.57;100.00
7309;BME280;3695;53.330;9.876;2023-07-22T07:51:12;101785.22;;;25.53;100.00
7309;BME280;3695;53.330;9.876;2023-07-22T07:53:38;101750.66;;;28.02;100.00
7309;BME280;3695;53.330;9.876;2023-07-22T07:56:08;101780.59;;;26.58;100.00
7309;BME280;3695;53.330;9.876;2023-07-22T07:58:35;101759.97;;;27.70;100.00
7309;BME280;3695;53.330;9.876;2023-07-22T08:01:02;101773.31;;;27.27;100.00
7309;BME280;3695;53.330;9.876;2023-07-22T08:03:28;101786.91;;;25.54;100.00
7309;BME280;3695;53.330;9.876;2023-07-22T08:05:55;101770.22;;;26.45;100.00
7309;BME280;3695;53.330;9.876;2023-07-22T08:08:22;101783.91;;;25.22;100.00
7309;BME280;3695;53.330;9.876;2023-07-22T08:10:57;101770.59;;;26.89;100.00
7309;BME280;3695;53.330;9.876;2023-07-22T08:13:25;101781.91;;;26.98;100.00
7309;BME280;3695;53.330;9.876;2023-07-22T08:15:52;101756.25;;;31.49;100.00
7309;BME280;3695;53.330;9.876;2023-07-22T08:18:18;101786.34;;;27.45;100.00
7309;BME280;3695;53.330;9.876;2023-07-22T08:20:44;101785.50;;;26.04;100.00
7309;BME280;3695;53.330;9.876;2023-07-22T08:23:12;101785.50;;;28.99;100.00
7309;BME280;3695;53.330;9.876;2023-07-22T08:25:39;101782.38;;;27.19;100.00
7309;BME280;3695;53.330;9.876;2023-07-22T08:28:05;101786.66;;;28.12;100.00
7309;BME280;3695;53.330;9.876;2023-07-22T08:30:33;101783.28;;;28.02;100.00
7309;BME280;3695;53.330;9.876;2023-07-22T08:33:00;101783.59;;;27.13;100.00
7309;BME280;3695;53.330;9.876;2023-07-22T08:35:27;101798.34;;;26.94;100.00
7309;BME280;3695;53.330;9.876;2023-07-22T08:37:53;101771.03;;;27.29;100.00
7309;BME280;3695;53.330;9.876;2023-07-22T08:40:20;101785.31;;;26.39;100.00
7309;BME280;3695;53.330;9.876;2023-07-22T08:42:48;101787.97;;;26.06;100.00
7309;BME280;3695;53.330;9.876;2023-07-22T08:45:16;101770.53;;;27.27;100.00
7309;BME280;3695;53.330;9.876;2023-07-22T08:47:46;101777.81;;;26.90;100.00
7309;BME280;3695;53.330;9.876;2023-07-22T08:50:15;101779.97;;;26.42;100.00
7309;BME280;3695;53.330;9.876;2023-07-22T08:52:43;101782.06;;;26.31;100.00
7309;BME280;3695;53.330;9.876;2023-07-22T08:55:10;101792.06;;;25.37;100.00
7309;BME280;3695;53.330;9.876;2023-07-22T08:57:38;101779.72;;;26.76;100.00
7309;BME280;3695;53.330;9.876;2023-07-22T09:00:06;101778.69;;;27.37;100.00
7309;BME280;3695;53.330;9.876;2023-07-22T09:02:35;101752.81;;;28.55;100.00
7309;BME280;3695;53.330;9.876;2023-07-22T09:05:03;101768.41;;;28.06;100.00
7309;BME280;3695;53.330;9.876;2023-07-22T09:07:30;101761.34;;;28.22;100.00
7309;BME280;3695;53.330;9.876;2023-07-22T09:09:58;101761.91;;;27.97;100.00
7309;BME280;3695;53.330;9.876;2023-07-22T09:12:25;101762.13;;;28.50;100.00
7309;BME280;3695;53.330;9.876;2023-07-22T09:14:52;101763.25;;;28.00;100.00
7309;BME280;3695;53.330;9.876;2023-07-22T09:17:19;101747.16;;;29.44;100.00
7309;BME280;3695;53.330;9.876;2023-07-22T09:19:45;101759.13;;;28.69;100.00
7309;BME280;3695;53.330;9.876;2023-07-22T09:22:13;101757.63;;;29.08;100.00
7309;BME280;3695;53.330;9.876;2023-07-22T09:24:39;101742.47;;;30.28;100.00
7309;BME280;3695;53.330;9.876;2023-07-22T09:27:06;101757.19;;;28.47;100.00
7309;BME280;3695;53.330;9.876;2023-07-22T09:29:33;101757.19;;;31.70;100.00
7309;BME280;3695;53.330;9.876;2023-07-22T09:32:01;101758.72;;;30.08;100.00
7309;BME280;3695;53.330;9.876;2023-07-22T09:34:28;101783.19;;;27.06;100.00
7309;BME280;3695;53.330;9.876;2023-07-22T09:36:56;101738.34;;;30.34;100.00
7309;BME280;3695;53.330;9.876;2023-07-22T09:39:24;101771.25;;;27.33;100.00
7309;BME280;3695;53.330;9.876;2023-07-22T09:41:51;101762.19;;;28.09;100.00
7309;BME280;3695;53.330;9.876;2023-07-22T09:44:18;101750.91;;;28.64;100.00
7309;BME280;3695;53.330;9.876;2023-07-22T09:46:47;101744.50;;;29.08;100.00
7309;BME280;3695;53.330;9.876;2023-07-22T09:49:16;101726.66;;;30.49;100.00
7309;BME280;3695;53.330;9.876;2023-07-22T09:51:42;101777.81;;;27.09;100.00
7309;BME280;3695;53.330;9.876;2023-07-22T09:54:09;101739.97;;;28.76;100.00
7309;BME280;3695;53.330;9.876;2023-07-22T09:56:44;101732.84;;;29.94;100.00
7309;BME280;3695;53.330;9.876;2023-07-22T09:59:12;101746.38;;;28.77;100.00
7309;BME280;3695;53.330;9.876;2023-07-22T10:01:39;101776.06;;;27.73;100.00
7309;BME280;3695;53.330;9.876;2023-07-22T10:04:06;101737.63;;;29.45;100.00
7309;BME280;3695;53.330;9.876;2023-07-22T10:06:33;101728.28;;;30.16;100.00
7309;BME280;3695;53.330;9.876;2023-07-22T10:09:02;101708.91;;;30.28;100.00
7309;BME280;3695;53.330;9.876;2023-07-22T10:11:30;101735.94;;;29.05;100.00
7309;BME280;3695;53.330;9.876;2023-07-22T10:13:59;101736.75;;;29.36;100.00
7309;BME280;3695;53.330;9.876;2023-07-22T10:16:25;101739.94;;;29.43;100.00
7309;BME280;3695;53.330;9.876;2023-07-22T10:18:53;101718.59;;;30.30;100.00
7309;BME280;3695;53.330;9.876;2023-07-22T10:21:20;101747.97;;;29.14;100.00
7309;BME280;3695;53.330;9.876;2023-07-22T10:23:47;101755.00;;;27.81;100.00
7309;BME280;3695;53.330;9.876;2023-07-22T10:26:15;101727.84;;;29.74;100.00
7309;BME280;3695;53.330;9.876;2023-07-22T10:28:44;101748.59;;;27.80;100.00
7309;BME280;3695;53.330;9.876;2023-07-22T10:31:12;101716.78;;;30.08;100.00
7309;BME280;3695;53.330;9.876;2023-07-22T10:33:39;101736.75;;;28.61;100.00
7309;BME280;3695;53.330;9.876;2023-07-22T10:36:07;101726.91;;;29.39;100.00
7309;BME280;3695;53.330;9.876;2023-07-22T10:38:34;101719.91;;;30.50;100.00
7309;BME280;3695;53.330;9.876;2023-07-22T10:41:04;101708.44;;;31.16;100.00
7309;BME280;3695;53.330;9.876;2023-07-22T10:43:37;101743.13;;;27.89;100.00
7309;BME280;3695;53.330;9.876;2023-07-22T10:46:06;101746.88;;;28.93;100.00
7309;BME280;3695;53.330;9.876;2023-07-22T10:48:36;101718.72;;;29.99;100.00
7309;BME280;3695;53.330;9.876;2023-07-22T10:51:06;101724.06;;;29.78;100.00
7309;BME280;3695;53.330;9.876;2023-07-22T10:53:40;101710.69;;;30.50;100.00
7309;BME280;3695;53.330;9.876;2023-07-22T10:56:19;101728.53;;;29.00;100.00
7309;BME280;3695;53.330;9.876;2023-07-22T10:58:56;101729.91;;;28.44;100.00
7309;BME280;3695;53.330;9.876;2023-07-22T11:01:24;101722.38;;;30.60;100.00
7309;BME280;3695;53.330;9.876;2023-07-22T11:04:05;101736.03;;;30.45;100.00
7309;BME280;3695;53.330;9.876;2023-07-22T11:06:33;101721.66;;;29.94;100.00
7309;BME280;3695;53.330;9.876;2023-07-22T11:09:00;101726.31;;;29.20;100.00
7309;BME280;3695;53.330;9.876;2023-07-22T11:11:35;101721.16;;;29.04;100.00
7309;BME280;3695;53.330;9.876;2023-07-22T11:14:15;101742.53;;;28.64;100.00
7309;BME280;3695;53.330;9.876;2023-07-22T11:16:42;101719.41;;;29.17;100.00
7309;BME280;3695;53.330;9.876;2023-07-22T11:19:10;101723.25;;;28.54;100.00
7309;BME280;3695;53.330;9.876;2023-07-22T11:21:37;101700.63;;;33.91;100.00
7309;BME280;3695;53.330;9.876;2023-07-22T11:24:03;101732.00;;;29.85;100.00
7309;BME280;3695;53.330;9.876;2023-07-22T11:26:31;101715.59;;;30.01;100.00
7309;BME280;3695;53.330;9.876;2023-07-22T11:28:57;101709.22;;;29.43;100.00
7309;BME280;3695;53.330;9.876;2023-07-22T11:31:30;101697.31;;;29.86;100.00
7309;BME280;3695;53.330;9.876;2023-07-22T11:33:57;101705.47;;;29.65;100.00
7309;BME280;3695;53.330;9.876;2023-07-22T11:36:25;101712.88;;;29.30;100.00
7309;BME280;3695;53.330;9.876;2023-07-22T11:38:52;101714.47;;;29.14;100.00
7309;BME280;3695;53.330;9.876;2023-07-22T11:41:20;101701.38;;;29.71;100.00
7309;BME280;3695;53.330;9.876;2023-07-22T11:43:46;101698.66;;;30.66;100.00
7309;BME280;3695;53.330;9.876;2023-07-22T11:46:13;101691.25;;;30.53;100.00
7309;BME280;3695;53.330;9.876;2023-07-22T11:48:48;101695.22;;;30.61;100.00
7309;BME280;3695;53.330;9.876;2023-07-22T11:51:16;101646.88;;;33.68;100.00
7309;BME280;3695;53.330;9.876;2023-07-22T11:53:46;101687.56;;;30.96;100.00
7309;BME280;3695;53.330;9.876;2023-07-22T11:56:17;101690.84;;;31.45;100.00
7309;BME280;3695;53.330;9.876;2023-07-22T11:58:48;101679.31;;;30.99;100.00
7309;BME280;3695;53.330;9.876;2023-07-22T12:01:15;101703.13;;;30.16;100.00
7309;BME280;3695;53.330;9.876;2023-07-22T12:03:41;101713.09;;;29.03;100.00
7309;BME280;3695;53.330;9.876;2023-07-22T12:06:08;101696.28;;;29.25;100.00
7309;BME280;3695;53.330;9.876;2023-07-22T12:08:35;101692.41;;;30.69;100.00
7309;BME280;3695;53.330;9.876;2023-07-22T12:11:03;101681.25;;;30.35;100.00
7309;BME280;3695;53.330;9.876;2023-07-22T12:13:35;101688.78;;;30.78;100.00
7309;BME280;3695;53.330;9.876;2023-07-22T12:16:03;101697.91;;;29.66;100.00
7309;BME280;3695;53.330;9.876;2023-07-22T12:18:41;101678.28;;;31.13;100.00
7309;BME280;3695;53.330;9.876;2023-07-22T12:21:07;101685.50;;;30.24;100.00
7309;BME280;3695;53.330;9.876;2023-07-22T12:23:36;101708.66;;;28.79;100.00
7309;BME280;3695;53.330;9.876;2023-07-22T12:26:04;101702.50;;;29.53;100.00
7309;BME280;3695;53.330;9.876;2023-07-22T12:28:30;101679.88;;;30.58;100.00
7309;BME280;3695;53.330;9.876;2023-07-22T12:30:57;101686.66;;;30.49;100.00
7309;BME280;3695;53.330;9.876;2023-07-22T12:33:23;101675.75;;;30.82;100.00
7309;BME280;3695;53.330;9.876;2023-07-22T12:35:50;101671.69;;;30.62;100.00
7309;BME280;3695;53.330;9.876;2023-07-22T12:38:16;101679.94;;;30.41;100.00
7309;BME280;3695;53.330;9.876;2023-07-22T12:40:43;101681.22;;;30.52;100.00
7309;BME280;3695;53.330;9.876;2023-07-22T12:43:11;101674.50;;;30.19;100.00
7309;BME280;3695;53.330;9.876;2023-07-22T12:45:37;101690.19;;;29.63;100.00
7309;BME280;3695;53.330;9.876;2023-07-22T12:48:04;101690.38;;;29.75;100.00
7309;BME280;3695;53.330;9.876;2023-07-22T12:50:31;101680.28;;;30.31;100.00
7309;BME280;3695;53.330;9.876;2023-07-22T12:52:58;101677.97;;;30.33;100.00
7309;BME280;3695;53.330;9.876;2023-07-22T12:55:24;101671.38;;;31.48;100.00
7309;BME280;3695;53.330;9.876;2023-07-22T12:57:51;101693.56;;;29.42;100.00
7309;BME280;3695;53.330;9.876;2023-07-22T13:00:19;101702.91;;;28.53;100.00